Terminal Aerodrome Forecast
Issued by NWS Rapid City, SD

Home | Current Version | Previous Version | Text Only | Print | Product List | Glossary Off
Versions: 1 2 3 4 5 6 7 8 9 10 11 12 13 14 15 16 17 18 19 20 21 22 23 24 25 26 27 28

000
FTUS43 KUNR 270520
TAFRAP
TAF
KRAP 270520Z 2706/2806 25005KT P6SM BKN200
     FM271800 17010KT P6SM -SHRA BKN060 OVC100
      TEMPO 2718/2722 3SM TSRA BKN040CB
     FM272200 27008KT P6SM BKN100=

USA.gov is the U.S. government's official web portal to all federal, state and local government web resources and services.